• Join FlightAware (Why Join?)
  • Login
  • US Flag 
03:30PM EDT


 

Airport Tracker/Info


-or-


 

Live Flight TrackerFlight Track Log ✈ N990LC ✈ 25-Sep-2013 ✈ KAPA - KMIA

Flight Track Log - Related Links

Times and Time Zones

All times are in EDT time to prevent confusion due to time zone crossing. See the N990LC flight status page for this flight to view local times or setup timezone preferences in your user account.

Time Position Orientation Groundspeed Altitude Reporting Facility
EDT Latitude Longitude Course Direction KTS MPH feet Rate Location/Type
06:40PM 39.5333 -104.8167 109° East 219 252 7,500  Level Denver TRACON
06:40PM 39.5333 -104.7333 90° East 252 290 9,300 1,680 Climbing Denver TRACON
06:41PM 39.5333 -104.6167 90° East 295 339 10,800 1,260 Climbing Denver TRACON
06:42PM 39.5167 -104.5167 102° East 331 381 11,700 540 Climbing Denver TRACON
06:43PM 39.5333 -104.4000 79° East 323 372 11,900 660 Climbing Denver TRACON
06:45PM 39.2406 -104.0023 109° East  Level Estimated
06:45PM 39.5506 -104.2386 82° East 337 388 13,300  Level Denver Center
06:46PM 39.5639 -104.0989 83° East 360 414 15,500 1,860 Climbing Denver Center
06:47PM 39.5761 -103.9644 83° East 374 430 17,200 1,980 Climbing Denver Center
06:48PM 39.5892 -103.8275 83° East 382 440 19,700 2,160 Climbing Denver Center
06:49PM 39.5656 -103.6881 102° East 359 413 21,700 1,560 Climbing Denver Center
06:50PM 39.5278 -103.5567 110° East 383 441 23,000 1,380 Climbing Denver Center
06:51PM 39.4814 -103.4278 115° Southeast 394 453 24,600 1,440 Climbing Denver Center
06:52PM 39.4356 -103.2925 114° Southeast 408 470 26,000 1,320 Climbing Denver Center
06:53PM 39.3886 -103.1553 114° Southeast 416 479 27,400 1,260 Climbing Denver Center
06:54PM 39.3397 -103.0172 115° Southeast 421 484 28,700 1,320 Climbing Denver Center
06:55PM 39.2800 -102.8469 114° Southeast 434 499 30,200 1,140 Climbing Denver Center
06:56PM 39.2256 -102.6933 115° Southeast 441 507 31,100 480 Climbing Denver Center
06:57PM 39.1731 -102.5511 115° Southeast 455 524 31,300 600 Climbing Denver Center
06:58PM 39.1233 -102.4019 113° Southeast 469 540 32,400 1,140 Climbing Denver Center
06:59PM 39.0633 -102.2339 115° Southeast 465 535 33,700 960 Climbing Denver Center
07:00PM 39.0103 -102.0914 116° Southeast 462 532 34,500 720 Climbing Denver Center
07:01PM 38.9492 -101.9178 114° Southeast 473 544 35,300 1,020 Climbing Denver Center
07:02PM 38.8978 -101.7736 115° Southeast 469 540 36,700 960 Climbing Denver Center
07:03PM 38.8369 -101.6108 116° Southeast 456 525 37,400 480 Climbing Denver Center
07:04PM 38.7856 -101.4686 115° Southeast 456 525 37,800 480 Climbing Denver Center
07:05PM 38.7239 -101.3028 115° Southeast 459 528 38,500 540 Climbing Denver Center
07:06PM 38.6714 -101.1611 115° Southeast 461 531 39,000 240 Climbing Denver Center
07:07PM 38.6083 -100.9925 116° Southeast 466 536 39,000  Level Denver Center
07:09PM 38.5528 -100.8447 116° Southeast 474 545 39,000  Level Denver Center
07:09PM 38.5147 -100.7392 115° Southeast 483 556 39,000  Level Kansas City Center
07:10PM 38.4489 -100.5647 116° Southeast 487 560 39,000  Level Kansas City Center
07:11PM 38.3917 -100.4139 116° Southeast 490 564 39,000  Level Kansas City Center
07:12PM 38.3233 -100.2361 116° Southeast 496 571 39,000  Level Kansas City Center
07:13PM 38.2644 -100.0844 116° Southeast 497 572 39,000  Level Kansas City Center
07:14PM 38.1961 -99.9081 116° Southeast 496 571 39,000  Level Kansas City Center
07:15PM 38.1367 -99.7572 117° Southeast 497 572 39,000  Level Kansas City Center
07:16PM 38.0689 -99.5819 116° Southeast 496 571 39,000  Level Kansas City Center
07:18PM 38.0142 -99.4428 116° Southeast 496 571 39,000  Level Kansas City Center
07:19PM 37.9533 -99.2875 116° Southeast 495 570 39,000  Level Kansas City Center
07:20PM 37.8797 -99.1011 117° Southeast 495 570 39,000  Level Kansas City Center
07:21PM 37.8192 -98.9458 116° Southeast 493 567 39,000  Level Kansas City Center
07:22PM 37.7578 -98.7919 117° Southeast 493 567 39,000  Level Kansas City Center
07:23PM 37.6961 -98.6364 117° Southeast 496 571 39,000  Level Kansas City Center
07:24PM 37.6339 -98.4828 117° Southeast 495 570 39,000  Level Kansas City Center
07:25PM 37.5717 -98.3292 117° Southeast 496 571 39,000  Level Kansas City Center
07:26PM 37.4972 -98.1467 117° Southeast 494 568 39,000  Level Kansas City Center
07:27PM 37.4333 -97.9942 118° Southeast 495 570 39,000  Level Kansas City Center
07:28PM 37.3711 -97.8428 117° Southeast 494 568 39,000  Level Kansas City Center
07:29PM 37.3081 -97.6919 118° Southeast 493 567 39,000  Level Kansas City Center
07:30PM 37.2447 -97.5411 118° Southeast 491 565 39,000  Level Kansas City Center
07:31PM 37.1697 -97.3608 118° Southeast 489 563 39,000  Level Kansas City Center
07:32PM 37.1064 -97.2114 118° Southeast 488 562 39,000  Level Kansas City Center
07:33PM 37.0444 -97.0592 117° Southeast 490 564 39,000  Level Kansas City Center
07:34PM 36.9778 -96.9128 120° Southeast 488 562 39,000  Level Kansas City Center
07:35PM 36.9114 -96.7572 118° Southeast 489 563 39,000  Level Kansas City Center
07:36PM 36.8500 -96.6069 117° Southeast 487 560 39,000  Level Kansas City Center
07:37PM 36.7753 -96.4289 118° Southeast 483 556 39,000  Level Kansas City Center
07:38PM 36.7106 -96.2806 119° Southeast 485 558 39,000  Level Kansas City Center
07:39PM 36.6469 -96.1325 118° Southeast 486 559 39,000  Level Kansas City Center
07:40PM 36.5831 -95.9853 118° Southeast 484 557 39,000  Level Kansas City Center
07:41PM 36.5178 -95.8386 119° Southeast 484 557 39,000  Level Kansas City Center
07:42PM 36.4500 -95.6861 119° Southeast 482 555 39,000  Level Kansas City Center
07:43PM 36.3853 -95.5372 118° Southeast 487 560 39,000  Level Kansas City Center
07:44PM 36.3178 -95.3897 120° Southeast 490 564 39,000  Level Kansas City Center
07:45PM 36.2389 -95.2161 119° Southeast 485 558 39,000  Level Kansas City Center
07:46PM 36.1831 -95.0903 119° Southeast 481 554 39,000  Level Kansas City Center
07:48PM 36.1056 -94.9156 119° Southeast 482 555 39,000  Level Kansas City Center
07:49PM 36.0400 -94.7708 119° Southeast 482 555 39,000  Level Kansas City Center
07:50PM 35.9747 -94.6267 119° Southeast 481 554 39,000  Level Kansas City Center
07:50PM 35.9186 -94.5067 120° Southeast 479 551 39,000  Level Memphis Center
07:51PM 35.8525 -94.3650 120° Southeast 479 551 39,000  Level Memphis Center
07:52PM 35.7903 -94.2214 118° Southeast 479 551 39,000  Level Memphis Center
07:53PM 35.7236 -94.0775 120° Southeast 479 551 39,000  Level Memphis Center
07:54PM 35.6550 -93.9339 120° Southeast 479 551 39,000  Level Memphis Center
07:55PM 35.5881 -93.7933 120° Southeast 479 551 39,000  Level Memphis Center
07:56PM 35.5208 -93.6528 120° Southeast 479 551 39,000  Level Memphis Center
07:57PM 35.4558 -93.5100 119° Southeast 479 551 39,000  Level Memphis Center
07:58PM 35.3861 -93.3697 121° Southeast 479 551 39,000  Level Memphis Center
07:59PM 35.3228 -93.2275 119° Southeast 473 544 39,000  Level Memphis Center
08:00PM 35.2531 -93.0828 121° Southeast 486 559 39,000  Level Memphis Center
08:01PM 35.1872 -92.9461 120° Southeast 480 552 39,000  Level Memphis Center
08:02PM 35.1208 -92.8119 121° Southeast 494 568 39,000  Level Memphis Center
08:03PM 35.0547 -92.6706 120° Southeast 494 568 39,000  Level Memphis Center
08:04PM 34.9864 -92.5317 121° Southeast 494 568 39,000  Level Memphis Center
08:05PM 34.9219 -92.3908 119° Southeast 489 563 39,000  Level Memphis Center
08:06PM 34.8553 -92.2500 120° Southeast 483 556 39,000  Level Memphis Center
08:07PM 34.7844 -92.1094 122° Southeast 483 556 39,000  Level Memphis Center
08:08PM 34.7153 -91.9717 121° Southeast 478 550 39,000  Level Memphis Center
08:09PM 34.6461 -91.8339 121° Southeast 478 550 39,000  Level Memphis Center
08:10PM 34.5706 -91.6814 121° Southeast 478 550 39,000  Level Memphis Center
08:11PM 34.5031 -91.5467 121° Southeast 478 550 39,000  Level Memphis Center
08:12PM 34.4333 -91.4072 121° Southeast 478 550 39,000  Level Memphis Center
08:13PM 34.3675 -91.2756 121° Southeast 470 541 39,000  Level Memphis Center
08:14PM 34.2956 -91.1392 123° Southeast 475 547 39,000  Level Memphis Center
08:15PM 34.2275 -91.0028 121° Southeast 475 547 39,000  Level Memphis Center
08:16PM 34.1592 -90.8717 122° Southeast 475 547 39,000  Level Memphis Center
08:17PM 34.0908 -90.7358 121° Southeast 475 547 39,000  Level Memphis Center
08:18PM 34.0244 -90.6028 121° Southeast 475 547 39,000  Level Memphis Center
08:19PM 33.9556 -90.4675 122° Southeast 475 547 39,000  Level Memphis Center
08:20PM 33.8931 -90.3497 123° Southeast 475 547 39,000  Level Memphis Center
08:21PM 33.8219 -90.2172 123° Southeast 475 547 39,000  Level Memphis Center
08:22PM 33.7592 -90.0847 120° Southeast 470 541 39,000  Level Memphis Center
08:23PM 33.6919 -89.9528 121° Southeast 470 541 39,000  Level Memphis Center
08:24PM 33.6225 -89.8208 122° Southeast 470 541 39,000  Level Memphis Center
08:25PM 33.5553 -89.6892 121° Southeast 470 541 39,000  Level Memphis Center
08:26PM 33.4833 -89.5578 123° Southeast 475 547 39,000  Level Memphis Center
08:27PM 33.4156 -89.4214 121° Southeast 475 547 39,000  Level Memphis Center
08:28PM 33.3458 -89.2928 123° Southeast 475 547 39,000  Level Memphis Center
08:29PM 33.2756 -89.1619 123° Southeast 475 547 39,000  Level Memphis Center
08:30PM 33.2056 -89.0289 122° Southeast 475 547 39,000  Level Memphis Center
08:31PM 33.1350 -88.9011 123° Southeast 475 547 39,000  Level Memphis Center
08:32PM 33.0644 -88.7658 122° Southeast 475 547 39,000  Level Memphis Center
08:33PM 32.9961 -88.6358 122° Southeast 475 547 39,000  Level Memphis Center
08:34PM 32.9233 -88.5061 124° Southeast 475 547 39,000  Level Memphis Center
08:35PM 32.8544 -88.3764 122° Southeast 475 547 39,000  Level Memphis Center
08:37PM 32.7142 -88.1294 124° Southeast 466 536 39,000  Level Atlanta Center
08:38PM 32.6453 -87.9981 122° Southeast 461 531 39,000  Level Atlanta Center
08:39PM 32.5722 -87.8642 123° Southeast 473 544 39,000  Level Atlanta Center
08:40PM 32.5011 -87.7356 123° Southeast 473 544 39,000  Level Atlanta Center
08:41PM 32.4317 -87.6094 123° Southeast 467 537 39,000  Level Atlanta Center
08:42PM 32.3583 -87.4789 124° Southeast 467 537 39,000  Level Atlanta Center
08:43PM 32.2886 -87.3508 123° Southeast 472 543 39,000  Level Atlanta Center
08:44PM 32.2128 -87.2203 124° Southeast 477 549 39,000  Level Atlanta Center
08:45PM 32.1389 -87.0925 124° Southeast 477 549 39,000  Level Atlanta Center
08:46PM 32.0689 -86.9653 123° Southeast 472 543 39,000  Level Atlanta Center
08:47PM 31.9944 -86.8403 125° Southeast 472 543 39,000  Level Atlanta Center
08:48PM 31.9303 -86.7233 123° Southeast 477 549 39,000  Level Atlanta Center
08:49PM 31.8558 -86.5964 125° Southeast 472 543 39,000  Level Atlanta Center
08:51PM 31.7203 -86.3606 124° Southeast 476 548 39,000  Level Jacksonville Center
08:52PM 31.6544 -86.2458 124° Southeast 470 541 39,000 240 Level Jacksonville Center
08:53PM 31.5739 -86.1308 129° Southeast 463 533 39,500 420 Climbing Jacksonville Center
08:54PM 31.4806 -86.0303 137° Southeast 453 521 39,900 480 Climbing Jacksonville Center
08:55PM 31.3892 -85.9272 136° Southeast 453 521 40,500 540 Climbing Jacksonville Center
08:56PM 31.2975 -85.8294 138° Southeast 453 521 41,000 240 Climbing Jacksonville Center
08:57PM 31.2100 -85.7272 135° Southeast 453 521 41,000  Level Jacksonville Center
08:58PM 31.1161 -85.6250 137° Southeast 453 521 41,000  Level Jacksonville Center
08:59PM 31.0244 -85.5253 137° Southeast 453 521 41,000  Level Jacksonville Center
09:00PM 30.9283 -85.4258 138° Southeast 458 527 41,000  Level Jacksonville Center
09:01PM 30.8342 -85.3264 138° Southeast 458 527 41,000  Level Jacksonville Center
09:02PM 30.7339 -85.2150 136° Southeast 458 527 41,000  Level Jacksonville Center
09:03PM 30.6397 -85.1161 138° Southeast 458 527 41,000  Level Jacksonville Center
09:04PM 30.5433 -85.0150 138° Southeast 458 527 41,000  Level Jacksonville Center
09:05PM 30.4467 -84.9167 139° Southeast 463 533 41,000  Level Jacksonville Center
09:06PM 30.3522 -84.8136 137° Southeast 463 533 41,000  Level Jacksonville Center
09:07PM 30.2597 -84.7131 137° Southeast 463 533 41,000  Level Jacksonville Center
09:08PM 30.1650 -84.6175 139° Southeast 463 533 41,000  Level Jacksonville Center
09:09PM 30.0703 -84.5175 138° Southeast 463 533 41,000  Level Jacksonville Center
09:10PM 29.9733 -84.4200 139° Southeast 463 533 41,000  Level Jacksonville Center
09:11PM 29.8806 -84.3203 137° Southeast 463 533 41,000  Level Jacksonville Center
09:12PM 29.7856 -84.2231 138° Southeast 463 533 41,000  Level Jacksonville Center
09:13PM 29.6928 -84.1286 139° Southeast 458 527 41,000  Level Jacksonville Center
09:14PM 29.5997 -84.0319 138° Southeast 458 527 41,000  Level Jacksonville Center
09:15PM 29.5044 -83.9353 139° Southeast 458 527 41,000  Level Jacksonville Center
09:16PM 29.4092 -83.8389 139° Southeast 453 521 41,000  Level Jacksonville Center
09:17PM 29.3158 -83.7406 137° Southeast 453 521 41,000  Level Jacksonville Center
09:18PM 29.2225 -83.6469 139° Southeast 453 521 41,000  Level Jacksonville Center
09:19PM 29.1311 -83.5511 137° Southeast 453 521 41,000  Level Jacksonville Center
09:20PM 29.0356 -83.4578 139° Southeast 453 521 41,000  Level Jacksonville Center
09:21PM 28.9442 -83.3600 137° Southeast 453 521 41,000  Level Jacksonville Center
09:22PM 28.8486 -83.2694 140° Southeast 453 521 41,000  Level Jacksonville Center
09:23PM 28.7589 -83.1767 138° Southeast 448 516 41,000  Level Jacksonville Center
09:24PM 28.6756 -83.0867 137° Southeast 448 516 41,000  Level Jacksonville Center
09:26PM 28.5125 -82.9244 139° Southeast 435 501 41,000  Level Miami Center
09:27PM 28.4183 -82.8322 139° Southeast 445 512 41,000  Level Miami Center
09:28PM 28.3261 -82.7400 139° Southeast 445 512 41,000  Level Miami Center
09:29PM 28.2339 -82.6481 139° Southeast 445 512 41,000  Level Miami Center
09:30PM 28.1256 -82.5439 140° Southeast 445 512 41,000  Level Miami Center
09:31PM 28.0311 -82.4519 139° Southeast 445 512 41,000  Level Miami Center
09:32PM 27.9386 -82.3583 138° Southeast 445 512 41,000  Level Miami Center
09:33PM 27.8464 -82.2644 138° Southeast 445 512 41,000  Level Miami Center
09:34PM 27.7658 -82.1833 138° Southeast 440 506 41,000  Level Miami Center
09:35PM 27.6631 -82.0825 139° Southeast 445 512 41,000 -480 Level Miami Center
09:36PM 27.5725 -81.9939 139° Southeast 445 512 40,100 -1,020 Descending Miami Center
09:37PM 27.4817 -81.9058 139° Southeast 440 506 39,000 -1,320 Descending Miami Center
09:38PM 27.4031 -81.8275 138° Southeast 435 501 37,500 -1,680 Descending Miami Center
09:39PM 27.3119 -81.7394 139° Southeast 435 501 35,700 -2,100 Descending Miami Center
09:40PM 27.2069 -81.6392 140° Southeast 444 511 33,300 -2,280 Descending Miami Center
09:41PM 27.1139 -81.5469 139° Southeast 444 511 31,200 -2,100 Descending Miami Center
09:42PM 27.0167 -81.4544 140° Southeast 444 511 29,200 -1,920 Descending Miami Center
09:43PM 26.9336 -81.3719 138° Southeast 444 511 27,400 -1,980 Descending Miami Center
09:44PM 26.8261 -81.2722 140° Southeast 444 511 25,300 -2,100 Descending Miami Center
09:45PM 26.7328 -81.1828 139° Southeast 444 511 23,300 -1,980 Descending Miami Center
09:46PM 26.6414 -81.0958 140° Southeast 444 511 21,400 -1,980 Descending Miami Center
09:47PM 26.5478 -81.0064 139° Southeast 429 494 19,400 -2,100 Descending Miami Center
09:48PM 26.4625 -80.9247 139° Southeast 434 499 17,300 -1,980 Descending Miami Center
09:49PM 26.3831 -80.8522 141° Southeast 393 452 15,700 -1,740 Descending Miami Center
09:49PM 26.3869 -80.8547 330° Northwest 407 468 15,600 -1,920 Descending Miami Center
09:50PM 26.3036 -80.7756 140° Southeast 374 430 13,800 -2,100 Descending Miami Center
09:50PM 26.2994 -80.7708 135° Southeast 385 443 13,500 -1,800 Descending Miami Center
09:51PM 26.2344 -80.7061 138° Southeast 369 425 11,900 -1,740 Descending Miami Center
09:51PM 26.2222 -80.6942 139° Southeast 349 402 11,700 -1,980 Descending Miami Center
09:52PM 26.1678 -80.6183 129° Southeast 330 380 10,000 -1,740 Descending Miami Center
09:52PM 26.1761 -80.6233 332° Northwest 349 402 10,100 -1,020 Climbing Miami Center
09:53PM 26.1217 -80.5406 126° Southeast 299 344 9,000 -1,200 Descending Miami Center
09:53PM 26.1300 -80.5456 332° Northwest 323 372 8,900 -600 Descending Miami Center
09:54PM 26.0797 -80.4628 124° Southeast 276 318 8,400 -420 Descending Miami Center
09:55PM 26.0317 -80.3806 123° Southeast 280 322 8,100 -840 Descending Miami Center
09:56PM 25.9956 -80.3147 121° Southeast 248 285 6,600 -1,740 Descending Miami Center
09:57PM 25.9533 -80.2442 124° Southeast 261 300 4,500 -1,560 Descending Miami Center
09:58PM 25.9086 -80.1900 133° Southeast 226 260 3,400 -1,080 Descending Miami Center
09:59PM 25.8631 -80.1794 168° South 173 199 2,400 -1,020 Descending Miami Center
10:00PM 25.8253 -80.1853 188° South 131 151 1,500 -720 Descending Miami Center
10:01PM 25.8039 -80.2122 229° Southwest 125 144 1,100 -540 Descending Miami Center
10:02PM 25.8008 -80.2514 265° West 126 145 500 -600 Descending Miami Center
10:04PM 25.7833 -80.2833 171° South  Level FlightAware Approximate
10:11PM 25.7954 -80.2901 171° South  Level Estimated